sensor_id;sensor_type;location;lat;lon;timestamp;P1;durP1;ratioP1;P2;durP2;ratioP2
6999;SDS011;3540;53.242;10.408;2023-05-16T00:01:26;7.37;;;3.57;;
6999;SDS011;3540;53.242;10.408;2023-05-16T00:03:54;6.43;;;3.10;;
6999;SDS011;3540;53.242;10.408;2023-05-16T00:06:20;6.43;;;3.00;;
6999;SDS011;3540;53.242;10.408;2023-05-16T00:08:47;6.07;;;2.90;;
6999;SDS011;3540;53.242;10.408;2023-05-16T00:11:13;7.13;;;3.03;;
6999;SDS011;3540;53.242;10.408;2023-05-16T00:13:40;9.23;;;3.17;;
6999;SDS011;3540;53.242;10.408;2023-05-16T00:16:06;8.30;;;3.07;;
6999;SDS011;3540;53.242;10.408;2023-05-16T00:18:32;8.73;;;3.00;;
6999;SDS011;3540;53.242;10.408;2023-05-16T00:21:01;5.37;;;2.93;;
6999;SDS011;3540;53.242;10.408;2023-05-16T00:23:27;7.10;;;2.93;;
6999;SDS011;3540;53.242;10.408;2023-05-16T00:25:53;8.40;;;3.53;;
6999;SDS011;3540;53.242;10.408;2023-05-16T00:28:18;7.83;;;3.10;;
6999;SDS011;3540;53.242;10.408;2023-05-16T00:30:44;6.13;;;3.23;;
6999;SDS011;3540;53.242;10.408;2023-05-16T00:33:10;6.80;;;3.23;;
6999;SDS011;3540;53.242;10.408;2023-05-16T00:35:35;5.93;;;3.30;;
6999;SDS011;3540;53.242;10.408;2023-05-16T00:38:01;6.33;;;3.03;;
6999;SDS011;3540;53.242;10.408;2023-05-16T00:40:26;4.90;;;3.00;;
6999;SDS011;3540;53.242;10.408;2023-05-16T00:42:52;9.07;;;3.70;;
6999;SDS011;3540;53.242;10.408;2023-05-16T00:45:17;7.33;;;3.37;;
6999;SDS011;3540;53.242;10.408;2023-05-16T00:47:43;6.03;;;3.07;;
6999;SDS011;3540;53.242;10.408;2023-05-16T00:50:09;3.87;;;2.63;;
6999;SDS011;3540;53.242;10.408;2023-05-16T00:52:35;6.40;;;2.90;;
6999;SDS011;3540;53.242;10.408;2023-05-16T00:55:01;4.40;;;2.67;;
6999;SDS011;3540;53.242;10.408;2023-05-16T00:57:27;4.63;;;2.83;;
6999;SDS011;3540;53.242;10.408;2023-05-16T00:59:53;6.30;;;2.40;;
6999;SDS011;3540;53.242;10.408;2023-05-16T01:02:19;5.43;;;2.60;;
6999;SDS011;3540;53.242;10.408;2023-05-16T01:04:45;5.23;;;2.60;;
6999;SDS011;3540;53.242;10.408;2023-05-16T01:07:12;5.30;;;2.80;;
6999;SDS011;3540;53.242;10.408;2023-05-16T01:09:38;6.87;;;2.43;;
6999;SDS011;3540;53.242;10.408;2023-05-16T01:15:08;5.77;;;2.53;;
6999;SDS011;3540;53.242;10.408;2023-05-16T01:23:18;4.70;;;2.47;;
6999;SDS011;3540;53.242;10.408;2023-05-16T01:26:30;6.80;;;2.70;;
6999;SDS011;3540;53.242;10.408;2023-05-16T01:28:46;5.23;;;2.57;;
6999;SDS011;3540;53.242;10.408;2023-05-16T01:31:13;6.37;;;2.60;;
6999;SDS011;3540;53.242;10.408;2023-05-16T01:33:39;7.53;;;2.80;;
6999;SDS011;3540;53.242;10.408;2023-05-16T01:39:10;4.07;;;2.30;;
6999;SDS011;3540;53.242;10.408;2023-05-16T01:44:18;10.53;;;2.63;;
6999;SDS011;3540;53.242;10.408;2023-05-16T01:46:50;5.70;;;2.83;;
6999;SDS011;3540;53.242;10.408;2023-05-16T01:49:34;5.77;;;3.07;;
6999;SDS011;3540;53.242;10.408;2023-05-16T01:52:27;6.90;;;3.00;;
6999;SDS011;3540;53.242;10.408;2023-05-16T01:54:59;5.67;;;2.93;;
6999;SDS011;3540;53.242;10.408;2023-05-16T01:57:27;8.17;;;3.23;;
6999;SDS011;3540;53.242;10.408;2023-05-16T01:59:55;7.47;;;3.63;;
6999;SDS011;3540;53.242;10.408;2023-05-16T02:02:24;7.17;;;3.27;;
6999;SDS011;3540;53.242;10.408;2023-05-16T02:04:49;7.27;;;2.87;;
6999;SDS011;3540;53.242;10.408;2023-05-16T02:07:15;6.77;;;3.13;;
6999;SDS011;3540;53.242;10.408;2023-05-16T02:09:41;6.67;;;2.80;;
6999;SDS011;3540;53.242;10.408;2023-05-16T02:12:06;6.63;;;3.10;;
6999;SDS011;3540;53.242;10.408;2023-05-16T02:14:32;4.67;;;2.93;;
6999;SDS011;3540;53.242;10.408;2023-05-16T02:16:58;4.47;;;2.33;;
6999;SDS011;3540;53.242;10.408;2023-05-16T02:19:23;3.73;;;2.50;;
6999;SDS011;3540;53.242;10.408;2023-05-16T02:21:49;5.23;;;2.50;;
6999;SDS011;3540;53.242;10.408;2023-05-16T02:24:15;8.43;;;2.40;;
6999;SDS011;3540;53.242;10.408;2023-05-16T02:26:41;9.90;;;2.60;;
6999;SDS011;3540;53.242;10.408;2023-05-16T02:29:06;5.33;;;2.10;;
6999;SDS011;3540;53.242;10.408;2023-05-16T02:31:33;6.97;;;2.30;;
6999;SDS011;3540;53.242;10.408;2023-05-16T02:33:59;5.70;;;2.47;;
6999;SDS011;3540;53.242;10.408;2023-05-16T02:36:25;6.47;;;2.27;;
6999;SDS011;3540;53.242;10.408;2023-05-16T02:38:51;8.70;;;2.80;;
6999;SDS011;3540;53.242;10.408;2023-05-16T02:41:17;8.10;;;2.30;;
6999;SDS011;3540;53.242;10.408;2023-05-16T02:43:43;7.00;;;2.07;;
6999;SDS011;3540;53.242;10.408;2023-05-16T02:46:27;12.27;;;2.60;;
6999;SDS011;3540;53.242;10.408;2023-05-16T02:48:57;5.63;;;2.37;;
6999;SDS011;3540;53.242;10.408;2023-05-16T02:51:23;5.47;;;2.20;;
6999;SDS011;3540;53.242;10.408;2023-05-16T02:53:51;9.80;;;3.20;;
6999;SDS011;3540;53.242;10.408;2023-05-16T02:56:17;6.47;;;3.20;;
6999;SDS011;3540;53.242;10.408;2023-05-16T02:58:45;7.63;;;3.43;;
6999;SDS011;3540;53.242;10.408;2023-05-16T03:01:12;8.60;;;3.37;;
6999;SDS011;3540;53.242;10.408;2023-05-16T03:03:39;9.20;;;3.10;;
6999;SDS011;3540;53.242;10.408;2023-05-16T03:06:04;9.37;;;3.23;;
6999;SDS011;3540;53.242;10.408;2023-05-16T03:08:31;7.33;;;3.17;;
6999;SDS011;3540;53.242;10.408;2023-05-16T03:10:57;7.27;;;3.00;;
6999;SDS011;3540;53.242;10.408;2023-05-16T03:13:22;11.50;;;3.60;;
6999;SDS011;3540;53.242;10.408;2023-05-16T03:15:48;11.33;;;3.90;;
6999;SDS011;3540;53.242;10.408;2023-05-16T03:18:14;10.40;;;3.20;;
6999;SDS011;3540;53.242;10.408;2023-05-16T03:20:39;8.57;;;3.13;;
6999;SDS011;3540;53.242;10.408;2023-05-16T03:23:05;12.90;;;3.50;;
6999;SDS011;3540;53.242;10.408;2023-05-16T03:25:32;10.43;;;3.40;;
6999;SDS011;3540;53.242;10.408;2023-05-16T03:27:58;10.83;;;2.77;;
6999;SDS011;3540;53.242;10.408;2023-05-16T03:30:24;10.90;;;3.20;;
6999;SDS011;3540;53.242;10.408;2023-05-16T03:32:50;13.70;;;3.00;;
6999;SDS011;3540;53.242;10.408;2023-05-16T03:35:16;10.53;;;3.00;;
6999;SDS011;3540;53.242;10.408;2023-05-16T03:37:42;8.77;;;2.60;;
6999;SDS011;3540;53.242;10.408;2023-05-16T03:40:08;13.50;;;2.93;;
6999;SDS011;3540;53.242;10.408;2023-05-16T03:42:35;7.83;;;2.67;;
6999;SDS011;3540;53.242;10.408;2023-05-16T03:45:00;10.70;;;3.03;;
6999;SDS011;3540;53.242;10.408;2023-05-16T03:47:30;12.27;;;2.77;;
6999;SDS011;3540;53.242;10.408;2023-05-16T03:49:56;11.13;;;2.30;;
6999;SDS011;3540;53.242;10.408;2023-05-16T03:52:22;5.50;;;2.33;;
6999;SDS011;3540;53.242;10.408;2023-05-16T03:54:47;12.23;;;2.77;;
6999;SDS011;3540;53.242;10.408;2023-05-16T03:57:13;11.00;;;3.23;;
6999;SDS011;3540;53.242;10.408;2023-05-16T03:59:38;14.77;;;2.77;;
6999;SDS011;3540;53.242;10.408;2023-05-16T04:02:04;11.87;;;2.37;;
6999;SDS011;3540;53.242;10.408;2023-05-16T04:04:30;9.23;;;2.40;;
6999;SDS011;3540;53.242;10.408;2023-05-16T04:06:56;7.83;;;2.40;;
6999;SDS011;3540;53.242;10.408;2023-05-16T04:09:21;8.23;;;2.50;;
6999;SDS011;3540;53.242;10.408;2023-05-16T04:11:47;13.00;;;2.50;;
6999;SDS011;3540;53.242;10.408;2023-05-16T04:14:13;11.90;;;2.57;;
6999;SDS011;3540;53.242;10.408;2023-05-16T04:16:39;6.80;;;2.17;;
6999;SDS011;3540;53.242;10.408;2023-05-16T04:19:05;10.83;;;2.50;;
6999;SDS011;3540;53.242;10.408;2023-05-16T04:21:31;9.87;;;2.60;;
6999;SDS011;3540;53.242;10.408;2023-05-16T04:23:57;7.10;;;2.10;;
6999;SDS011;3540;53.242;10.408;2023-05-16T04:26:23;7.10;;;2.70;;
6999;SDS011;3540;53.242;10.408;2023-05-16T04:28:49;8.60;;;2.67;;
6999;SDS011;3540;53.242;10.408;2023-05-16T04:31:15;12.43;;;2.50;;
6999;SDS011;3540;53.242;10.408;2023-05-16T04:33:41;10.83;;;2.80;;
6999;SDS011;3540;53.242;10.408;2023-05-16T04:36:07;17.60;;;3.00;;
6999;SDS011;3540;53.242;10.408;2023-05-16T04:38:32;15.03;;;3.57;;
6999;SDS011;3540;53.242;10.408;2023-05-16T04:40:58;12.43;;;3.10;;
6999;SDS011;3540;53.242;10.408;2023-05-16T04:43:24;9.40;;;3.03;;
6999;SDS011;3540;53.242;10.408;2023-05-16T04:45:50;12.57;;;2.80;;
6999;SDS011;3540;53.242;10.408;2023-05-16T04:48:17;12.33;;;3.30;;
6999;SDS011;3540;53.242;10.408;2023-05-16T04:50:43;15.20;;;3.33;;
6999;SDS011;3540;53.242;10.408;2023-05-16T04:53:09;15.33;;;3.43;;
6999;SDS011;3540;53.242;10.408;2023-05-16T04:55:34;15.73;;;3.23;;
6999;SDS011;3540;53.242;10.408;2023-05-16T04:58:00;17.90;;;3.63;;
6999;SDS011;3540;53.242;10.408;2023-05-16T05:00:26;15.67;;;3.30;;
6999;SDS011;3540;53.242;10.408;2023-05-16T05:02:52;19.20;;;3.07;;
6999;SDS011;3540;53.242;10.408;2023-05-16T05:05:17;15.27;;;3.13;;
6999;SDS011;3540;53.242;10.408;2023-05-16T05:07:43;16.40;;;3.50;;
6999;SDS011;3540;53.242;10.408;2023-05-16T05:10:09;18.37;;;3.07;;
6999;SDS011;3540;53.242;10.408;2023-05-16T05:12:35;14.97;;;2.83;;
6999;SDS011;3540;53.242;10.408;2023-05-16T05:15:01;11.70;;;2.97;;
6999;SDS011;3540;53.242;10.408;2023-05-16T05:17:27;16.30;;;3.13;;
6999;SDS011;3540;53.242;10.408;2023-05-16T05:19:53;13.93;;;2.77;;
6999;SDS011;3540;53.242;10.408;2023-05-16T05:22:19;14.80;;;2.90;;
6999;SDS011;3540;53.242;10.408;2023-05-16T05:24:45;13.47;;;2.87;;
6999;SDS011;3540;53.242;10.408;2023-05-16T05:27:11;14.10;;;3.03;;
6999;SDS011;3540;53.242;10.408;2023-05-16T05:29:37;18.53;;;3.87;;
6999;SDS011;3540;53.242;10.408;2023-05-16T05:32:03;18.13;;;3.23;;
6999;SDS011;3540;53.242;10.408;2023-05-16T05:34:29;16.73;;;3.03;;
6999;SDS011;3540;53.242;10.408;2023-05-16T05:36:55;14.83;;;3.07;;
6999;SDS011;3540;53.242;10.408;2023-05-16T05:39:21;14.07;;;2.87;;
6999;SDS011;3540;53.242;10.408;2023-05-16T05:41:46;15.40;;;3.53;;
6999;SDS011;3540;53.242;10.408;2023-05-16T05:44:12;11.97;;;2.60;;
6999;SDS011;3540;53.242;10.408;2023-05-16T05:46:38;16.27;;;2.40;;
6999;SDS011;3540;53.242;10.408;2023-05-16T05:49:04;14.57;;;3.20;;
6999;SDS011;3540;53.242;10.408;2023-05-16T05:51:30;19.13;;;2.87;;
6999;SDS011;3540;53.242;10.408;2023-05-16T05:53:56;11.67;;;2.73;;
6999;SDS011;3540;53.242;10.408;2023-05-16T05:56:21;13.83;;;2.70;;
6999;SDS011;3540;53.242;10.408;2023-05-16T05:58:48;15.60;;;2.97;;
6999;SDS011;3540;53.242;10.408;2023-05-16T06:01:15;17.77;;;2.40;;
6999;SDS011;3540;53.242;10.408;2023-05-16T06:03:40;12.40;;;2.70;;
6999;SDS011;3540;53.242;10.408;2023-05-16T06:06:07;10.40;;;2.67;;
6999;SDS011;3540;53.242;10.408;2023-05-16T06:08:32;15.40;;;2.93;;
6999;SDS011;3540;53.242;10.408;2023-05-16T06:10:58;18.70;;;2.87;;
6999;SDS011;3540;53.242;10.408;2023-05-16T06:13:24;14.17;;;2.77;;
6999;SDS011;3540;53.242;10.408;2023-05-16T06:15:50;13.60;;;2.97;;
6999;SDS011;3540;53.242;10.408;2023-05-16T06:18:16;14.73;;;2.73;;
6999;SDS011;3540;53.242;10.408;2023-05-16T06:20:42;13.60;;;2.57;;
6999;SDS011;3540;53.242;10.408;2023-05-16T06:23:08;12.20;;;2.37;;
6999;SDS011;3540;53.242;10.408;2023-05-16T06:25:33;15.20;;;2.70;;
6999;SDS011;3540;53.242;10.408;2023-05-16T06:27:59;10.87;;;2.60;;
6999;SDS011;3540;53.242;10.408;2023-05-16T06:30:27;13.40;;;2.83;;
6999;SDS011;3540;53.242;10.408;2023-05-16T06:32:53;13.50;;;3.27;;
6999;SDS011;3540;53.242;10.408;2023-05-16T06:35:18;15.63;;;3.23;;
6999;SDS011;3540;53.242;10.408;2023-05-16T06:37:44;12.13;;;2.70;;
6999;SDS011;3540;53.242;10.408;2023-05-16T06:40:10;17.70;;;2.97;;
6999;SDS011;3540;53.242;10.408;2023-05-16T06:42:36;16.40;;;2.90;;
6999;SDS011;3540;53.242;10.408;2023-05-16T06:45:02;15.70;;;2.83;;
6999;SDS011;3540;53.242;10.408;2023-05-16T06:47:27;12.97;;;2.97;;
6999;SDS011;3540;53.242;10.408;2023-05-16T06:49:53;11.53;;;2.83;;
6999;SDS011;3540;53.242;10.408;2023-05-16T06:52:19;12.40;;;2.90;;
6999;SDS011;3540;53.242;10.408;2023-05-16T06:54:45;11.80;;;2.73;;
6999;SDS011;3540;53.242;10.408;2023-05-16T06:57:11;7.57;;;2.27;;
6999;SDS011;3540;53.242;10.408;2023-05-16T06:59:37;12.97;;;2.53;;
6999;SDS011;3540;53.242;10.408;2023-05-16T07:02:03;9.47;;;2.60;;
6999;SDS011;3540;53.242;10.408;2023-05-16T07:04:30;12.47;;;2.50;;
6999;SDS011;3540;53.242;10.408;2023-05-16T07:06:56;9.50;;;2.00;;
6999;SDS011;3540;53.242;10.408;2023-05-16T07:09:22;9.30;;;2.37;;
6999;SDS011;3540;53.242;10.408;2023-05-16T07:11:48;12.57;;;2.87;;
6999;SDS011;3540;53.242;10.408;2023-05-16T07:14:13;12.83;;;2.83;;
6999;SDS011;3540;53.242;10.408;2023-05-16T07:16:39;14.67;;;3.23;;
6999;SDS011;3540;53.242;10.408;2023-05-16T07:19:05;10.47;;;2.50;;
6999;SDS011;3540;53.242;10.408;2023-05-16T07:21:30;12.10;;;2.63;;
6999;SDS011;3540;53.242;10.408;2023-05-16T07:23:56;15.90;;;3.00;;
6999;SDS011;3540;53.242;10.408;2023-05-16T07:26:22;8.67;;;2.23;;
6999;SDS011;3540;53.242;10.408;2023-05-16T07:28:50;12.60;;;2.57;;
6999;SDS011;3540;53.242;10.408;2023-05-16T07:31:16;9.90;;;2.60;;
6999;SDS011;3540;53.242;10.408;2023-05-16T07:33:43;13.97;;;3.20;;
6999;SDS011;3540;53.242;10.408;2023-05-16T07:36:11;10.87;;;3.00;;
6999;SDS011;3540;53.242;10.408;2023-05-16T07:38:37;10.13;;;2.40;;
6999;SDS011;3540;53.242;10.408;2023-05-16T07:41:03;12.63;;;2.40;;
6999;SDS011;3540;53.242;10.408;2023-05-16T07:43:28;8.60;;;2.27;;
6999;SDS011;3540;53.242;10.408;2023-05-16T07:45:54;11.33;;;2.87;;
6999;SDS011;3540;53.242;10.408;2023-05-16T07:48:19;10.47;;;2.23;;
6999;SDS011;3540;53.242;10.408;2023-05-16T07:50:45;11.17;;;2.47;;
6999;SDS011;3540;53.242;10.408;2023-05-16T07:53:11;9.30;;;2.40;;
6999;SDS011;3540;53.242;10.408;2023-05-16T07:55:37;8.60;;;2.23;;
6999;SDS011;3540;53.242;10.408;2023-05-16T07:58:02;14.57;;;2.73;;
6999;SDS011;3540;53.242;10.408;2023-05-16T08:00:28;11.37;;;2.03;;
6999;SDS011;3540;53.242;10.408;2023-05-16T08:02:54;11.17;;;2.43;;
6999;SDS011;3540;53.242;10.408;2023-05-16T08:05:20;7.37;;;2.00;;
6999;SDS011;3540;53.242;10.408;2023-05-16T08:07:46;12.23;;;2.20;;
6999;SDS011;3540;53.242;10.408;2023-05-16T08:10:12;6.43;;;2.00;;
6999;SDS011;3540;53.242;10.408;2023-05-16T08:12:37;9.70;;;2.20;;
6999;SDS011;3540;53.242;10.408;2023-05-16T08:15:03;10.23;;;1.87;;
6999;SDS011;3540;53.242;10.408;2023-05-16T08:17:30;6.77;;;2.03;;
6999;SDS011;3540;53.242;10.408;2023-05-16T08:19:55;6.40;;;2.27;;
6999;SDS011;3540;53.242;10.408;2023-05-16T08:22:23;5.27;;;1.80;;
6999;SDS011;3540;53.242;10.408;2023-05-16T08:24:49;8.10;;;1.90;;
6999;SDS011;3540;53.242;10.408;2023-05-16T08:27:15;7.73;;;2.20;;
6999;SDS011;3540;53.242;10.408;2023-05-16T08:29:40;11.03;;;2.37;;
6999;SDS011;3540;53.242;10.408;2023-05-16T08:32:07;8.80;;;2.10;;
6999;SDS011;3540;53.242;10.408;2023-05-16T08:34:34;9.17;;;2.37;;
6999;SDS011;3540;53.242;10.408;2023-05-16T08:37:00;5.30;;;1.77;;
6999;SDS011;3540;53.242;10.408;2023-05-16T08:39:26;10.90;;;2.33;;
6999;SDS011;3540;53.242;10.408;2023-05-16T08:41:51;5.73;;;2.30;;
6999;SDS011;3540;53.242;10.408;2023-05-16T08:44:17;6.60;;;1.87;;
6999;SDS011;3540;53.242;10.408;2023-05-16T08:46:52;8.13;;;2.13;;
6999;SDS011;3540;53.242;10.408;2023-05-16T08:49:19;13.53;;;2.53;;
6999;SDS011;3540;53.242;10.408;2023-05-16T08:51:46;10.63;;;2.07;;
6999;SDS011;3540;53.242;10.408;2023-05-16T08:54:12;8.07;;;2.30;;
6999;SDS011;3540;53.242;10.408;2023-05-16T08:56:43;8.93;;;2.13;;
6999;SDS011;3540;53.242;10.408;2023-05-16T08:59:10;7.73;;;2.20;;
6999;SDS011;3540;53.242;10.408;2023-05-16T09:01:39;7.83;;;2.00;;
6999;SDS011;3540;53.242;10.408;2023-05-16T09:04:06;7.63;;;1.97;;
6999;SDS011;3540;53.242;10.408;2023-05-16T09:06:32;6.73;;;2.13;;
6999;SDS011;3540;53.242;10.408;2023-05-16T09:08:58;6.87;;;1.90;;
6999;SDS011;3540;53.242;10.408;2023-05-16T09:11:23;7.53;;;2.17;;
6999;SDS011;3540;53.242;10.408;2023-05-16T09:13:50;5.80;;;2.00;;
6999;SDS011;3540;53.242;10.408;2023-05-16T09:16:17;9.17;;;2.03;;
6999;SDS011;3540;53.242;10.408;2023-05-16T09:18:53;10.60;;;2.40;;
6999;SDS011;3540;53.242;10.408;2023-05-16T09:21:21;7.37;;;2.20;;
6999;SDS011;3540;53.242;10.408;2023-05-16T09:23:48;11.10;;;2.00;;
6999;SDS011;3540;53.242;10.408;2023-05-16T09:26:14;8.77;;;2.23;;
6999;SDS011;3540;53.242;10.408;2023-05-16T09:28:40;8.63;;;2.00;;
6999;SDS011;3540;53.242;10.408;2023-05-16T09:31:20;8.23;;;2.13;;
6999;SDS011;3540;53.242;10.408;2023-05-16T09:33:52;9.43;;;1.70;;
6999;SDS011;3540;53.242;10.408;2023-05-16T09:36:20;8.20;;;2.07;;
6999;SDS011;3540;53.242;10.408;2023-05-16T09:38:46;9.00;;;1.80;;
6999;SDS011;3540;53.242;10.408;2023-05-16T09:41:12;13.13;;;2.03;;
6999;SDS011;3540;53.242;10.408;2023-05-16T09:43:39;10.17;;;2.00;;
6999;SDS011;3540;53.242;10.408;2023-05-16T09:46:07;13.33;;;2.00;;
6999;SDS011;3540;53.242;10.408;2023-05-16T09:48:32;10.30;;;2.03;;
6999;SDS011;3540;53.242;10.408;2023-05-16T09:50:58;8.87;;;1.97;;
6999;SDS011;3540;53.242;10.408;2023-05-16T09:53:29;9.77;;;1.77;;
6999;SDS011;3540;53.242;10.408;2023-05-16T09:56:06;6.43;;;1.60;;
6999;SDS011;3540;53.242;10.408;2023-05-16T09:58:35;7.40;;;1.93;;
6999;SDS011;3540;53.242;10.408;2023-05-16T10:01:02;9.40;;;2.00;;
6999;SDS011;3540;53.242;10.408;2023-05-16T10:03:28;10.37;;;2.13;;
6999;SDS011;3540;53.242;10.408;2023-05-16T10:05:55;10.20;;;1.90;;
6999;SDS011;3540;53.242;10.408;2023-05-16T10:08:22;7.63;;;2.33;;
6999;SDS011;3540;53.242;10.408;2023-05-16T10:10:53;6.83;;;1.90;;
6999;SDS011;3540;53.242;10.408;2023-05-16T10:13:20;5.20;;;1.70;;
6999;SDS011;3540;53.242;10.408;2023-05-16T10:15:48;9.37;;;1.90;;
6999;SDS011;3540;53.242;10.408;2023-05-16T10:18:15;11.73;;;2.10;;
6999;SDS011;3540;53.242;10.408;2023-05-16T10:20:43;6.77;;;2.20;;
6999;SDS011;3540;53.242;10.408;2023-05-16T10:23:15;8.60;;;2.13;;
6999;SDS011;3540;53.242;10.408;2023-05-16T10:25:42;13.07;;;1.87;;
6999;SDS011;3540;53.242;10.408;2023-05-16T10:28:09;7.00;;;2.03;;
6999;SDS011;3540;53.242;10.408;2023-05-16T10:30:35;6.90;;;1.70;;
6999;SDS011;3540;53.242;10.408;2023-05-16T10:33:04;4.83;;;1.67;;
6999;SDS011;3540;53.242;10.408;2023-05-16T10:35:30;4.00;;;1.50;;
6999;SDS011;3540;53.242;10.408;2023-05-16T10:37:57;9.57;;;1.93;;
6999;SDS011;3540;53.242;10.408;2023-05-16T10:40:24;5.87;;;1.90;;
6999;SDS011;3540;53.242;10.408;2023-05-16T10:42:58;8.10;;;2.00;;
6999;SDS011;3540;53.242;10.408;2023-05-16T10:45:25;9.43;;;1.90;;
6999;SDS011;3540;53.242;10.408;2023-05-16T10:47:54;10.07;;;1.80;;
6999;SDS011;3540;53.242;10.408;2023-05-16T10:50:40;5.83;;;1.50;;
6999;SDS011;3540;53.242;10.408;2023-05-16T11:06:49;11.60;;;2.10;;
6999;SDS011;3540;53.242;10.408;2023-05-16T11:09:17;5.67;;;1.80;;
6999;SDS011;3540;53.242;10.408;2023-05-16T11:17:11;6.67;;;1.83;;
6999;SDS011;3540;53.242;10.408;2023-05-16T11:19:48;7.97;;;2.30;;
6999;SDS011;3540;53.242;10.408;2023-05-16T11:22:32;11.20;;;2.47;;
6999;SDS011;3540;53.242;10.408;2023-05-16T11:29:55;6.53;;;1.90;;
6999;SDS011;3540;53.242;10.408;2023-05-16T11:32:35;7.93;;;2.00;;
6999;SDS011;3540;53.242;10.408;2023-05-16T11:35:03;11.70;;;2.00;;
6999;SDS011;3540;53.242;10.408;2023-05-16T11:37:33;8.27;;;2.00;;
6999;SDS011;3540;53.242;10.408;2023-05-16T11:40:06;9.17;;;1.87;;
6999;SDS011;3540;53.242;10.408;2023-05-16T11:42:34;8.23;;;1.87;;
6999;SDS011;3540;53.242;10.408;2023-05-16T11:45:08;8.07;;;1.90;;
6999;SDS011;3540;53.242;10.408;2023-05-16T11:47:36;11.17;;;2.00;;
6999;SDS011;3540;53.242;10.408;2023-05-16T11:50:03;8.33;;;2.00;;
6999;SDS011;3540;53.242;10.408;2023-05-16T11:52:39;7.27;;;2.03;;
6999;SDS011;3540;53.242;10.408;2023-05-16T11:55:08;8.97;;;2.23;;
6999;SDS011;3540;53.242;10.408;2023-05-16T11:57:35;4.93;;;1.77;;
6999;SDS011;3540;53.242;10.408;2023-05-16T12:00:15;10.73;;;2.33;;
6999;SDS011;3540;53.242;10.408;2023-05-16T12:02:46;11.17;;;2.50;;
6999;SDS011;3540;53.242;10.408;2023-05-16T12:05:14;12.70;;;2.50;;
6999;SDS011;3540;53.242;10.408;2023-05-16T12:07:44;10.07;;;2.27;;
6999;SDS011;3540;53.242;10.408;2023-05-16T12:10:11;13.67;;;2.60;;
6999;SDS011;3540;53.242;10.408;2023-05-16T12:12:42;7.33;;;2.27;;
6999;SDS011;3540;53.242;10.408;2023-05-16T12:15:10;11.60;;;2.37;;
6999;SDS011;3540;53.242;10.408;2023-05-16T12:17:37;9.30;;;2.10;;
6999;SDS011;3540;53.242;10.408;2023-05-16T12:20:04;8.53;;;2.00;;
6999;SDS011;3540;53.242;10.408;2023-05-16T12:22:30;10.50;;;2.37;;
6999;SDS011;3540;53.242;10.408;2023-05-16T12:27:45;8.33;;;1.90;;
6999;SDS011;3540;53.242;10.408;2023-05-16T12:30:11;4.13;;;1.43;;
6999;SDS011;3540;53.242;10.408;2023-05-16T12:32:37;8.00;;;2.03;;
6999;SDS011;3540;53.242;10.408;2023-05-16T12:35:02;4.67;;;1.80;;
6999;SDS011;3540;53.242;10.408;2023-05-16T12:37:28;9.47;;;1.80;;
6999;SDS011;3540;53.242;10.408;2023-05-16T12:40:00;7.67;;;2.10;;
6999;SDS011;3540;53.242;10.408;2023-05-16T12:42:28;11.37;;;2.17;;
6999;SDS011;3540;53.242;10.408;2023-05-16T12:44:54;9.43;;;2.07;;
6999;SDS011;3540;53.242;10.408;2023-05-16T12:47:20;8.53;;;1.97;;
6999;SDS011;3540;53.242;10.408;2023-05-16T12:49:46;10.57;;;1.97;;
6999;SDS011;3540;53.242;10.408;2023-05-16T12:52:18;13.80;;;2.17;;
6999;SDS011;3540;53.242;10.408;2023-05-16T12:54:45;7.80;;;1.70;;
6999;SDS011;3540;53.242;10.408;2023-05-16T12:57:11;3.83;;;1.73;;
6999;SDS011;3540;53.242;10.408;2023-05-16T12:59:37;10.43;;;2.10;;
6999;SDS011;3540;53.242;10.408;2023-05-16T13:02:03;8.13;;;1.93;;
6999;SDS011;3540;53.242;10.408;2023-05-16T13:04:29;8.07;;;1.93;;
6999;SDS011;3540;53.242;10.408;2023-05-16T13:06:54;9.20;;;1.57;;
6999;SDS011;3540;53.242;10.408;2023-05-16T13:09:21;8.93;;;1.70;;
6999;SDS011;3540;53.242;10.408;2023-05-16T13:11:47;12.17;;;1.73;;
6999;SDS011;3540;53.242;10.408;2023-05-16T13:14:14;7.57;;;1.67;;
6999;SDS011;3540;53.242;10.408;2023-05-16T13:16:41;2.30;;;1.30;;
6999;SDS011;3540;53.242;10.408;2023-05-16T13:19:07;2.63;;;1.37;;
6999;SDS011;3540;53.242;10.408;2023-05-16T13:21:33;5.27;;;1.40;;
6999;SDS011;3540;53.242;10.408;2023-05-16T13:23:59;3.47;;;1.43;;
6999;SDS011;3540;53.242;10.408;2023-05-16T13:26:24;3.90;;;1.43;;
6999;SDS011;3540;53.242;10.408;2023-05-16T13:28:51;8.97;;;1.60;;
6999;SDS011;3540;53.242;10.408;2023-05-16T13:31:18;4.07;;;1.63;;
6999;SDS011;3540;53.242;10.408;2023-05-16T13:33:44;9.33;;;2.00;;
6999;SDS011;3540;53.242;10.408;2023-05-16T13:36:10;8.47;;;1.77;;
6999;SDS011;3540;53.242;10.408;2023-05-16T13:38:35;5.90;;;1.80;;
6999;SDS011;3540;53.242;10.408;2023-05-16T13:41:01;4.30;;;1.73;;
6999;SDS011;3540;53.242;10.408;2023-05-16T13:43:26;3.57;;;1.50;;
6999;SDS011;3540;53.242;10.408;2023-05-16T13:45:52;6.27;;;2.00;;
6999;SDS011;3540;53.242;10.408;2023-05-16T13:48:18;7.77;;;2.10;;
6999;SDS011;3540;53.242;10.408;2023-05-16T13:50:43;7.13;;;2.20;;
6999;SDS011;3540;53.242;10.408;2023-05-16T13:53:10;5.23;;;1.63;;
6999;SDS011;3540;53.242;10.408;2023-05-16T13:55:36;6.90;;;2.30;;
6999;SDS011;3540;53.242;10.408;2023-05-16T13:58:02;5.20;;;1.83;;
6999;SDS011;3540;53.242;10.408;2023-05-16T14:00:28;7.47;;;1.70;;
6999;SDS011;3540;53.242;10.408;2023-05-16T14:02:54;10.27;;;1.97;;
6999;SDS011;3540;53.242;10.408;2023-05-16T14:05:20;8.50;;;1.67;;
6999;SDS011;3540;53.242;10.408;2023-05-16T14:07:46;9.47;;;2.33;;
6999;SDS011;3540;53.242;10.408;2023-05-16T14:10:12;8.53;;;1.80;;
6999;SDS011;3540;53.242;10.408;2023-05-16T14:12:38;8.70;;;1.77;;
6999;SDS011;3540;53.242;10.408;2023-05-16T14:15:04;6.77;;;2.00;;
6999;SDS011;3540;53.242;10.408;2023-05-16T14:17:31;8.77;;;2.20;;
6999;SDS011;3540;53.242;10.408;2023-05-16T14:19:56;5.27;;;1.90;;
6999;SDS011;3540;53.242;10.408;2023-05-16T14:22:22;9.13;;;2.20;;
6999;SDS011;3540;53.242;10.408;2023-05-16T14:24:48;7.33;;;1.97;;
6999;SDS011;3540;53.242;10.408;2023-05-16T14:27:13;12.13;;;1.80;;
6999;SDS011;3540;53.242;10.408;2023-05-16T14:29:40;8.17;;;1.70;;
6999;SDS011;3540;53.242;10.408;2023-05-16T14:32:06;7.37;;;1.60;;
6999;SDS011;3540;53.242;10.408;2023-05-16T14:34:32;5.53;;;1.63;;
6999;SDS011;3540;53.242;10.408;2023-05-16T14:36:58;6.30;;;1.90;;
6999;SDS011;3540;53.242;10.408;2023-05-16T14:39:24;13.43;;;2.33;;
6999;SDS011;3540;53.242;10.408;2023-05-16T14:41:51;9.17;;;1.80;;
6999;SDS011;3540;53.242;10.408;2023-05-16T14:44:16;6.57;;;1.80;;
6999;SDS011;3540;53.242;10.408;2023-05-16T14:46:43;9.37;;;1.57;;
6999;SDS011;3540;53.242;10.408;2023-05-16T14:49:09;6.53;;;1.67;;
6999;SDS011;3540;53.242;10.408;2023-05-16T14:51:35;5.97;;;1.63;;
6999;SDS011;3540;53.242;10.408;2023-05-16T14:54:00;8.00;;;1.50;;
6999;SDS011;3540;53.242;10.408;2023-05-16T14:56:26;7.87;;;1.70;;
6999;SDS011;3540;53.242;10.408;2023-05-16T14:58:52;6.17;;;1.57;;
6999;SDS011;3540;53.242;10.408;2023-05-16T15:01:18;4.87;;;1.90;;
6999;SDS011;3540;53.242;10.408;2023-05-16T15:03:43;7.20;;;1.60;;
6999;SDS011;3540;53.242;10.408;2023-05-16T15:06:09;5.73;;;1.60;;
6999;SDS011;3540;53.242;10.408;2023-05-16T15:08:35;5.27;;;1.53;;
6999;SDS011;3540;53.242;10.408;2023-05-16T15:11:02;8.07;;;2.23;;
6999;SDS011;3540;53.242;10.408;2023-05-16T15:13:28;4.57;;;1.70;;
6999;SDS011;3540;53.242;10.408;2023-05-16T15:15:54;5.27;;;1.40;;
6999;SDS011;3540;53.242;10.408;2023-05-16T15:18:20;6.33;;;1.50;;
6999;SDS011;3540;53.242;10.408;2023-05-16T15:20:45;4.73;;;1.50;;
6999;SDS011;3540;53.242;10.408;2023-05-16T15:23:11;4.30;;;1.13;;
6999;SDS011;3540;53.242;10.408;2023-05-16T15:25:37;4.80;;;1.27;;
6999;SDS011;3540;53.242;10.408;2023-05-16T15:28:03;6.03;;;1.37;;
6999;SDS011;3540;53.242;10.408;2023-05-16T15:30:29;2.30;;;1.27;;
6999;SDS011;3540;53.242;10.408;2023-05-16T15:32:54;3.70;;;1.33;;
6999;SDS011;3540;53.242;10.408;2023-05-16T15:35:20;2.83;;;1.23;;